sensor_id;sensor_type;location;lat;lon;timestamp;P1;durP1;ratioP1;P2;durP2;ratioP2
70183;SDS011;57554;51.546;6.776;2023-07-02T00:00:02;9.07;;;4.47;;
70183;SDS011;57554;51.546;6.776;2023-07-02T00:02:30;8.80;;;4.38;;
70183;SDS011;57554;51.546;6.776;2023-07-02T00:04:55;10.90;;;3.95;;
70183;SDS011;57554;51.546;6.776;2023-07-02T00:07:21;7.57;;;3.97;;
70183;SDS011;57554;51.546;6.776;2023-07-02T00:09:47;8.88;;;4.28;;
70183;SDS011;57554;51.546;6.776;2023-07-02T00:12:12;9.45;;;4.22;;
70183;SDS011;57554;51.546;6.776;2023-07-02T00:14:38;10.93;;;4.57;;
70183;SDS011;57554;51.546;6.776;2023-07-02T00:17:04;10.43;;;4.57;;
70183;SDS011;57554;51.546;6.776;2023-07-02T00:19:29;9.73;;;4.55;;
70183;SDS011;57554;51.546;6.776;2023-07-02T00:21:55;9.35;;;4.70;;
70183;SDS011;57554;51.546;6.776;2023-07-02T00:24:21;10.10;;;4.22;;
70183;SDS011;57554;51.546;6.776;2023-07-02T00:26:46;8.70;;;4.25;;
70183;SDS011;57554;51.546;6.776;2023-07-02T00:29:12;8.70;;;4.03;;
70183;SDS011;57554;51.546;6.776;2023-07-02T00:31:38;11.05;;;4.63;;
70183;SDS011;57554;51.546;6.776;2023-07-02T00:34:04;9.68;;;4.50;;
70183;SDS011;57554;51.546;6.776;2023-07-02T00:36:29;9.77;;;4.10;;
70183;SDS011;57554;51.546;6.776;2023-07-02T00:38:56;11.07;;;4.70;;
70183;SDS011;57554;51.546;6.776;2023-07-02T00:41:21;12.93;;;4.32;;
70183;SDS011;57554;51.546;6.776;2023-07-02T00:43:47;9.90;;;4.70;;
70183;SDS011;57554;51.546;6.776;2023-07-02T00:46:16;11.27;;;4.25;;
70183;SDS011;57554;51.546;6.776;2023-07-02T00:48:45;9.63;;;4.03;;
70183;SDS011;57554;51.546;6.776;2023-07-02T00:51:19;8.90;;;4.53;;
70183;SDS011;57554;51.546;6.776;2023-07-02T00:53:49;10.07;;;4.00;;
70183;SDS011;57554;51.546;6.776;2023-07-02T00:56:16;12.27;;;4.47;;
70183;SDS011;57554;51.546;6.776;2023-07-02T00:58:43;13.20;;;4.67;;
70183;SDS011;57554;51.546;6.776;2023-07-02T01:01:20;10.73;;;4.15;;
70183;SDS011;57554;51.546;6.776;2023-07-02T01:03:50;13.02;;;4.57;;
70183;SDS011;57554;51.546;6.776;2023-07-02T01:06:20;11.88;;;4.32;;
70183;SDS011;57554;51.546;6.776;2023-07-02T01:08:53;16.75;;;5.03;;
70183;SDS011;57554;51.546;6.776;2023-07-02T01:11:19;16.73;;;5.72;;
70183;SDS011;57554;51.546;6.776;2023-07-02T01:13:48;12.57;;;4.88;;
70183;SDS011;57554;51.546;6.776;2023-07-02T01:16:15;12.50;;;4.93;;
70183;SDS011;57554;51.546;6.776;2023-07-02T01:18:41;12.13;;;5.68;;
70183;SDS011;57554;51.546;6.776;2023-07-02T01:21:08;16.35;;;4.97;;
70183;SDS011;57554;51.546;6.776;2023-07-02T01:23:34;11.25;;;4.78;;
70183;SDS011;57554;51.546;6.776;2023-07-02T01:26:00;13.32;;;5.30;;
70183;SDS011;57554;51.546;6.776;2023-07-02T01:28:33;13.73;;;4.97;;
70183;SDS011;57554;51.546;6.776;2023-07-02T01:31:01;12.88;;;5.10;;
70183;SDS011;57554;51.546;6.776;2023-07-02T01:33:28;15.95;;;5.15;;
70183;SDS011;57554;51.546;6.776;2023-07-02T01:35:54;13.45;;;5.20;;
70183;SDS011;57554;51.546;6.776;2023-07-02T01:38:19;11.40;;;4.78;;
70183;SDS011;57554;51.546;6.776;2023-07-02T01:40:46;13.00;;;4.40;;
70183;SDS011;57554;51.546;6.776;2023-07-02T01:43:11;12.52;;;4.85;;
70183;SDS011;57554;51.546;6.776;2023-07-02T01:45:37;15.15;;;5.03;;
70183;SDS011;57554;51.546;6.776;2023-07-02T01:48:03;12.48;;;5.05;;
70183;SDS011;57554;51.546;6.776;2023-07-02T01:50:29;13.70;;;5.93;;
70183;SDS011;57554;51.546;6.776;2023-07-02T01:52:54;12.10;;;5.00;;
70183;SDS011;57554;51.546;6.776;2023-07-02T01:55:20;13.90;;;5.00;;
70183;SDS011;57554;51.546;6.776;2023-07-02T01:57:45;13.90;;;5.22;;
70183;SDS011;57554;51.546;6.776;2023-07-02T02:00:11;15.57;;;5.20;;
70183;SDS011;57554;51.546;6.776;2023-07-02T02:02:37;13.63;;;5.60;;
70183;SDS011;57554;51.546;6.776;2023-07-02T02:05:03;15.93;;;6.03;;
70183;SDS011;57554;51.546;6.776;2023-07-02T02:07:28;14.05;;;5.20;;
70183;SDS011;57554;51.546;6.776;2023-07-02T02:09:54;13.25;;;5.43;;
70183;SDS011;57554;51.546;6.776;2023-07-02T02:12:19;12.32;;;5.90;;
70183;SDS011;57554;51.546;6.776;2023-07-02T02:14:45;16.23;;;6.60;;
70183;SDS011;57554;51.546;6.776;2023-07-02T02:17:11;18.23;;;6.75;;
70183;SDS011;57554;51.546;6.776;2023-07-02T02:19:36;15.90;;;5.88;;
70183;SDS011;57554;51.546;6.776;2023-07-02T02:22:02;16.50;;;5.85;;
70183;SDS011;57554;51.546;6.776;2023-07-02T02:24:27;19.48;;;7.18;;
70183;SDS011;57554;51.546;6.776;2023-07-02T02:26:53;17.35;;;6.35;;
70183;SDS011;57554;51.546;6.776;2023-07-02T02:29:19;20.00;;;6.50;;
70183;SDS011;57554;51.546;6.776;2023-07-02T02:31:44;16.55;;;6.63;;
70183;SDS011;57554;51.546;6.776;2023-07-02T02:34:10;17.30;;;6.93;;
70183;SDS011;57554;51.546;6.776;2023-07-02T02:36:35;22.48;;;7.75;;
70183;SDS011;57554;51.546;6.776;2023-07-02T02:39:01;21.02;;;7.43;;
70183;SDS011;57554;51.546;6.776;2023-07-02T02:41:27;18.52;;;6.88;;
70183;SDS011;57554;51.546;6.776;2023-07-02T02:43:52;18.55;;;7.90;;
70183;SDS011;57554;51.546;6.776;2023-07-02T02:46:21;22.58;;;8.30;;
70183;SDS011;57554;51.546;6.776;2023-07-02T02:48:47;17.40;;;7.20;;
70183;SDS011;57554;51.546;6.776;2023-07-02T02:51:13;19.85;;;8.02;;
70183;SDS011;57554;51.546;6.776;2023-07-02T02:53:38;20.10;;;8.35;;
70183;SDS011;57554;51.546;6.776;2023-07-02T02:56:04;21.48;;;7.97;;
70183;SDS011;57554;51.546;6.776;2023-07-02T02:58:29;20.33;;;7.97;;
70183;SDS011;57554;51.546;6.776;2023-07-02T03:00:55;20.60;;;8.43;;
70183;SDS011;57554;51.546;6.776;2023-07-02T03:03:21;18.98;;;8.63;;
70183;SDS011;57554;51.546;6.776;2023-07-02T03:05:49;15.48;;;8.10;;
70183;SDS011;57554;51.546;6.776;2023-07-02T03:08:15;20.15;;;8.27;;
70183;SDS011;57554;51.546;6.776;2023-07-02T03:10:41;24.27;;;8.85;;
70183;SDS011;57554;51.546;6.776;2023-07-02T03:13:07;22.83;;;9.00;;
70183;SDS011;57554;51.546;6.776;2023-07-02T03:15:32;22.77;;;8.32;;
70183;SDS011;57554;51.546;6.776;2023-07-02T03:17:58;24.73;;;8.82;;
70183;SDS011;57554;51.546;6.776;2023-07-02T03:20:23;19.17;;;8.75;;
70183;SDS011;57554;51.546;6.776;2023-07-02T03:22:49;23.15;;;9.27;;
70183;SDS011;57554;51.546;6.776;2023-07-02T03:25:15;22.23;;;9.15;;
70183;SDS011;57554;51.546;6.776;2023-07-02T03:27:41;21.75;;;8.30;;
70183;SDS011;57554;51.546;6.776;2023-07-02T03:30:06;22.33;;;8.65;;
70183;SDS011;57554;51.546;6.776;2023-07-02T03:32:32;23.58;;;9.77;;
70183;SDS011;57554;51.546;6.776;2023-07-02T03:34:58;22.48;;;8.35;;
70183;SDS011;57554;51.546;6.776;2023-07-02T03:37:24;22.23;;;9.10;;
70183;SDS011;57554;51.546;6.776;2023-07-02T03:39:49;20.92;;;9.25;;
70183;SDS011;57554;51.546;6.776;2023-07-02T03:42:15;23.25;;;9.23;;
70183;SDS011;57554;51.546;6.776;2023-07-02T03:44:41;22.52;;;8.40;;
70183;SDS011;57554;51.546;6.776;2023-07-02T03:47:07;25.27;;;9.23;;
70183;SDS011;57554;51.546;6.776;2023-07-02T03:49:33;24.80;;;9.93;;
70183;SDS011;57554;51.546;6.776;2023-07-02T03:51:59;22.48;;;9.82;;
70183;SDS011;57554;51.546;6.776;2023-07-02T03:54:24;23.67;;;10.50;;
70183;SDS011;57554;51.546;6.776;2023-07-02T03:56:50;29.75;;;10.57;;
70183;SDS011;57554;51.546;6.776;2023-07-02T03:59:15;24.50;;;10.48;;
70183;SDS011;57554;51.546;6.776;2023-07-02T04:01:41;30.85;;;10.93;;
70183;SDS011;57554;51.546;6.776;2023-07-02T04:04:07;22.92;;;10.65;;
70183;SDS011;57554;51.546;6.776;2023-07-02T04:06:33;28.77;;;10.43;;
70183;SDS011;57554;51.546;6.776;2023-07-02T04:08:59;25.27;;;10.45;;
70183;SDS011;57554;51.546;6.776;2023-07-02T04:11:25;28.63;;;11.88;;
70183;SDS011;57554;51.546;6.776;2023-07-02T04:13:50;24.98;;;11.18;;
70183;SDS011;57554;51.546;6.776;2023-07-02T04:16:16;27.20;;;10.50;;
70183;SDS011;57554;51.546;6.776;2023-07-02T04:18:41;23.00;;;10.82;;
70183;SDS011;57554;51.546;6.776;2023-07-02T04:21:07;24.48;;;10.13;;
70183;SDS011;57554;51.546;6.776;2023-07-02T04:23:32;25.55;;;10.15;;
70183;SDS011;57554;51.546;6.776;2023-07-02T04:25:58;26.65;;;11.05;;
70183;SDS011;57554;51.546;6.776;2023-07-02T04:28:24;27.80;;;12.05;;
70183;SDS011;57554;51.546;6.776;2023-07-02T04:30:50;27.75;;;11.55;;
70183;SDS011;57554;51.546;6.776;2023-07-02T04:33:17;29.70;;;11.85;;
70183;SDS011;57554;51.546;6.776;2023-07-02T04:35:42;26.08;;;11.30;;
70183;SDS011;57554;51.546;6.776;2023-07-02T04:38:08;26.73;;;11.48;;
70183;SDS011;57554;51.546;6.776;2023-07-02T04:40:33;27.83;;;12.20;;
70183;SDS011;57554;51.546;6.776;2023-07-02T04:42:59;27.98;;;11.27;;
70183;SDS011;57554;51.546;6.776;2023-07-02T04:45:25;29.05;;;11.05;;
70183;SDS011;57554;51.546;6.776;2023-07-02T04:47:51;27.25;;;11.32;;
70183;SDS011;57554;51.546;6.776;2023-07-02T04:50:17;28.08;;;11.50;;
70183;SDS011;57554;51.546;6.776;2023-07-02T04:52:43;27.83;;;11.60;;
70183;SDS011;57554;51.546;6.776;2023-07-02T04:55:09;30.25;;;11.68;;
70183;SDS011;57554;51.546;6.776;2023-07-02T04:57:35;25.73;;;11.23;;
70183;SDS011;57554;51.546;6.776;2023-07-02T05:00:00;28.42;;;11.50;;
70183;SDS011;57554;51.546;6.776;2023-07-02T05:02:28;27.55;;;12.38;;
70183;SDS011;57554;51.546;6.776;2023-07-02T05:04:54;29.17;;;11.75;;
70183;SDS011;57554;51.546;6.776;2023-07-02T05:07:20;23.23;;;10.93;;
70183;SDS011;57554;51.546;6.776;2023-07-02T05:09:45;26.38;;;11.15;;
70183;SDS011;57554;51.546;6.776;2023-07-02T05:12:11;23.75;;;11.40;;
70183;SDS011;57554;51.546;6.776;2023-07-02T05:14:36;27.40;;;11.55;;
70183;SDS011;57554;51.546;6.776;2023-07-02T05:17:02;27.15;;;12.77;;
70183;SDS011;57554;51.546;6.776;2023-07-02T05:19:28;27.48;;;12.20;;
70183;SDS011;57554;51.546;6.776;2023-07-02T05:21:54;26.50;;;11.73;;
70183;SDS011;57554;51.546;6.776;2023-07-02T05:24:19;26.77;;;12.27;;
70183;SDS011;57554;51.546;6.776;2023-07-02T05:26:45;29.55;;;12.05;;
70183;SDS011;57554;51.546;6.776;2023-07-02T05:29:11;27.63;;;12.15;;
70183;SDS011;57554;51.546;6.776;2023-07-02T05:31:37;31.92;;;12.23;;
70183;SDS011;57554;51.546;6.776;2023-07-02T05:34:02;25.48;;;10.55;;
70183;SDS011;57554;51.546;6.776;2023-07-02T05:36:28;25.52;;;11.73;;
70183;SDS011;57554;51.546;6.776;2023-07-02T05:38:53;29.95;;;11.30;;
70183;SDS011;57554;51.546;6.776;2023-07-02T05:41:19;28.83;;;11.05;;
70183;SDS011;57554;51.546;6.776;2023-07-02T05:43:45;29.27;;;11.30;;
70183;SDS011;57554;51.546;6.776;2023-07-02T05:46:11;27.33;;;11.13;;
70183;SDS011;57554;51.546;6.776;2023-07-02T05:48:39;24.23;;;10.48;;
70183;SDS011;57554;51.546;6.776;2023-07-02T05:51:05;22.45;;;10.52;;
70183;SDS011;57554;51.546;6.776;2023-07-02T05:53:30;23.88;;;10.25;;
70183;SDS011;57554;51.546;6.776;2023-07-02T05:55:56;24.17;;;10.52;;
70183;SDS011;57554;51.546;6.776;2023-07-02T05:58:21;25.92;;;10.45;;
70183;SDS011;57554;51.546;6.776;2023-07-02T06:00:47;25.48;;;11.13;;
70183;SDS011;57554;51.546;6.776;2023-07-02T06:03:14;23.45;;;10.38;;
70183;SDS011;57554;51.546;6.776;2023-07-02T06:05:44;31.50;;;12.00;;
70183;SDS011;57554;51.546;6.776;2023-07-02T06:08:15;21.83;;;9.75;;
70183;SDS011;57554;51.546;6.776;2023-07-02T06:10:41;21.77;;;9.23;;
70183;SDS011;57554;51.546;6.776;2023-07-02T06:13:08;27.92;;;10.00;;
70183;SDS011;57554;51.546;6.776;2023-07-02T06:15:33;23.70;;;8.82;;
70183;SDS011;57554;51.546;6.776;2023-07-02T06:17:59;20.00;;;8.90;;
70183;SDS011;57554;51.546;6.776;2023-07-02T06:20:25;23.52;;;9.80;;
70183;SDS011;57554;51.546;6.776;2023-07-02T06:22:50;22.50;;;9.25;;
70183;SDS011;57554;51.546;6.776;2023-07-02T06:25:16;21.08;;;8.90;;
70183;SDS011;57554;51.546;6.776;2023-07-02T06:27:41;27.88;;;9.75;;
70183;SDS011;57554;51.546;6.776;2023-07-02T06:30:07;20.65;;;8.70;;
70183;SDS011;57554;51.546;6.776;2023-07-02T06:32:33;22.50;;;9.02;;
70183;SDS011;57554;51.546;6.776;2023-07-02T06:34:58;24.13;;;8.93;;
70183;SDS011;57554;51.546;6.776;2023-07-02T06:37:24;24.70;;;8.88;;
70183;SDS011;57554;51.546;6.776;2023-07-02T06:39:50;26.95;;;9.80;;
70183;SDS011;57554;51.546;6.776;2023-07-02T06:42:15;25.42;;;9.25;;
70183;SDS011;57554;51.546;6.776;2023-07-02T06:44:41;26.75;;;10.32;;
70183;SDS011;57554;51.546;6.776;2023-07-02T06:47:07;25.50;;;9.23;;
70183;SDS011;57554;51.546;6.776;2023-07-02T06:49:32;21.40;;;8.90;;
70183;SDS011;57554;51.546;6.776;2023-07-02T06:51:58;25.55;;;9.45;;
70183;SDS011;57554;51.546;6.776;2023-07-02T06:54:25;27.02;;;9.50;;
70183;SDS011;57554;51.546;6.776;2023-07-02T06:56:51;24.80;;;8.88;;
70183;SDS011;57554;51.546;6.776;2023-07-02T06:59:20;24.00;;;8.40;;
70183;SDS011;57554;51.546;6.776;2023-07-02T07:01:46;23.50;;;7.80;;
70183;SDS011;57554;51.546;6.776;2023-07-02T07:04:11;21.40;;;7.85;;
70183;SDS011;57554;51.546;6.776;2023-07-02T07:06:37;21.20;;;8.27;;
70183;SDS011;57554;51.546;6.776;2023-07-02T07:09:03;22.70;;;8.23;;
70183;SDS011;57554;51.546;6.776;2023-07-02T07:11:28;20.33;;;8.40;;
70183;SDS011;57554;51.546;6.776;2023-07-02T07:13:54;23.85;;;8.60;;
70183;SDS011;57554;51.546;6.776;2023-07-02T07:16:20;18.52;;;7.50;;
70183;SDS011;57554;51.546;6.776;2023-07-02T07:18:45;18.88;;;7.15;;
70183;SDS011;57554;51.546;6.776;2023-07-02T07:21:11;20.27;;;8.02;;
70183;SDS011;57554;51.546;6.776;2023-07-02T07:23:37;21.05;;;8.15;;
70183;SDS011;57554;51.546;6.776;2023-07-02T07:26:03;21.48;;;7.75;;
70183;SDS011;57554;51.546;6.776;2023-07-02T07:28:28;22.40;;;8.35;;
70183;SDS011;57554;51.546;6.776;2023-07-02T07:30:54;21.95;;;8.10;;
70183;SDS011;57554;51.546;6.776;2023-07-02T07:33:20;23.38;;;7.32;;
70183;SDS011;57554;51.546;6.776;2023-07-02T07:35:45;19.88;;;7.38;;
70183;SDS011;57554;51.546;6.776;2023-07-02T07:38:12;22.20;;;8.43;;
70183;SDS011;57554;51.546;6.776;2023-07-02T07:40:39;20.33;;;7.95;;
70183;SDS011;57554;51.546;6.776;2023-07-02T07:43:05;23.65;;;8.27;;
70183;SDS011;57554;51.546;6.776;2023-07-02T07:45:31;24.15;;;8.10;;
70183;SDS011;57554;51.546;6.776;2023-07-02T07:47:56;20.25;;;7.80;;
70183;SDS011;57554;51.546;6.776;2023-07-02T07:50:22;18.65;;;8.27;;
70183;SDS011;57554;51.546;6.776;2023-07-02T07:52:47;24.02;;;8.27;;
70183;SDS011;57554;51.546;6.776;2023-07-02T07:55:13;23.50;;;8.55;;
70183;SDS011;57554;51.546;6.776;2023-07-02T07:57:39;23.55;;;8.35;;
70183;SDS011;57554;51.546;6.776;2023-07-02T08:00:05;20.50;;;8.35;;
70183;SDS011;57554;51.546;6.776;2023-07-02T08:02:37;20.98;;;6.97;;
70183;SDS011;57554;51.546;6.776;2023-07-02T08:05:03;18.15;;;7.13;;
70183;SDS011;57554;51.546;6.776;2023-07-02T08:07:30;23.85;;;7.82;;
70183;SDS011;57554;51.546;6.776;2023-07-02T08:09:56;18.75;;;6.88;;
70183;SDS011;57554;51.546;6.776;2023-07-02T08:12:22;22.50;;;6.90;;
70183;SDS011;57554;51.546;6.776;2023-07-02T08:14:48;15.20;;;6.32;;
70183;SDS011;57554;51.546;6.776;2023-07-02T08:17:14;15.02;;;5.80;;
70183;SDS011;57554;51.546;6.776;2023-07-02T08:19:40;16.20;;;6.30;;
70183;SDS011;57554;51.546;6.776;2023-07-02T08:22:05;19.25;;;6.57;;
70183;SDS011;57554;51.546;6.776;2023-07-02T08:24:31;15.43;;;5.85;;
70183;SDS011;57554;51.546;6.776;2023-07-02T08:26:57;17.67;;;6.25;;
70183;SDS011;57554;51.546;6.776;2023-07-02T08:29:23;14.70;;;5.88;;
70183;SDS011;57554;51.546;6.776;2023-07-02T08:31:48;16.35;;;5.65;;
70183;SDS011;57554;51.546;6.776;2023-07-02T08:34:14;18.25;;;5.57;;
70183;SDS011;57554;51.546;6.776;2023-07-02T08:36:40;15.10;;;5.45;;
70183;SDS011;57554;51.546;6.776;2023-07-02T08:39:08;13.15;;;5.35;;
70183;SDS011;57554;51.546;6.776;2023-07-02T08:41:44;14.20;;;5.53;;
70183;SDS011;57554;51.546;6.776;2023-07-02T08:44:11;14.45;;;5.35;;
70183;SDS011;57554;51.546;6.776;2023-07-02T08:46:41;15.15;;;5.65;;
70183;SDS011;57554;51.546;6.776;2023-07-02T08:49:07;14.27;;;5.03;;
70183;SDS011;57554;51.546;6.776;2023-07-02T08:51:33;14.82;;;5.32;;
70183;SDS011;57554;51.546;6.776;2023-07-02T08:54:00;14.25;;;5.53;;
70183;SDS011;57554;51.546;6.776;2023-07-02T08:56:26;22.55;;;5.63;;
70183;SDS011;57554;51.546;6.776;2023-07-02T08:58:52;14.60;;;5.13;;
70183;SDS011;57554;51.546;6.776;2023-07-02T09:01:18;13.10;;;5.00;;
70183;SDS011;57554;51.546;6.776;2023-07-02T09:03:44;14.63;;;5.78;;
70183;SDS011;57554;51.546;6.776;2023-07-02T09:06:11;13.82;;;5.40;;
70183;SDS011;57554;51.546;6.776;2023-07-02T09:08:37;17.13;;;5.40;;
70183;SDS011;57554;51.546;6.776;2023-07-02T09:11:07;16.80;;;5.78;;
70183;SDS011;57554;51.546;6.776;2023-07-02T09:16:22;13.80;;;5.40;;
70183;SDS011;57554;51.546;6.776;2023-07-02T09:18:56;14.48;;;5.47;;
70183;SDS011;57554;51.546;6.776;2023-07-02T09:21:47;15.77;;;5.32;;
70183;SDS011;57554;51.546;6.776;2023-07-02T09:24:20;13.43;;;5.07;;
70183;SDS011;57554;51.546;6.776;2023-07-02T09:26:50;12.18;;;5.10;;
70183;SDS011;57554;51.546;6.776;2023-07-02T09:29:23;13.15;;;5.15;;
70183;SDS011;57554;51.546;6.776;2023-07-02T09:32:00;14.63;;;5.13;;
70183;SDS011;57554;51.546;6.776;2023-07-02T09:36:57;15.73;;;5.53;;
70183;SDS011;57554;51.546;6.776;2023-07-02T09:39:31;16.25;;;5.75;;
70183;SDS011;57554;51.546;6.776;2023-07-02T09:41:59;11.25;;;5.00;;
70183;SDS011;57554;51.546;6.776;2023-07-02T09:44:29;16.42;;;5.47;;
70183;SDS011;57554;51.546;6.776;2023-07-02T09:46:58;16.20;;;5.93;;
70183;SDS011;57554;51.546;6.776;2023-07-02T09:49:33;13.85;;;5.65;;
70183;SDS011;57554;51.546;6.776;2023-07-02T09:52:00;15.60;;;5.30;;
70183;SDS011;57554;51.546;6.776;2023-07-02T09:54:33;19.30;;;5.68;;
70183;SDS011;57554;51.546;6.776;2023-07-02T09:56:59;15.55;;;5.28;;
70183;SDS011;57554;51.546;6.776;2023-07-02T09:59:26;12.43;;;5.03;;
70183;SDS011;57554;51.546;6.776;2023-07-02T10:01:52;14.38;;;5.40;;
70183;SDS011;57554;51.546;6.776;2023-07-02T10:04:18;14.07;;;5.00;;
70183;SDS011;57554;51.546;6.776;2023-07-02T10:06:50;13.68;;;4.93;;
70183;SDS011;57554;51.546;6.776;2023-07-02T10:09:17;12.95;;;4.97;;
70183;SDS011;57554;51.546;6.776;2023-07-02T10:11:43;13.57;;;5.35;;
70183;SDS011;57554;51.546;6.776;2023-07-02T10:14:09;13.52;;;5.35;;
70183;SDS011;57554;51.546;6.776;2023-07-02T10:16:51;16.83;;;5.68;;
70183;SDS011;57554;51.546;6.776;2023-07-02T10:19:18;14.98;;;5.22;;
70183;SDS011;57554;51.546;6.776;2023-07-02T10:21:44;13.75;;;4.88;;
70183;SDS011;57554;51.546;6.776;2023-07-02T10:24:15;15.85;;;5.55;;
70183;SDS011;57554;51.546;6.776;2023-07-02T10:26:51;14.18;;;5.40;;
70183;SDS011;57554;51.546;6.776;2023-07-02T10:29:21;14.32;;;5.20;;
70183;SDS011;57554;51.546;6.776;2023-07-02T10:31:51;12.82;;;5.07;;
70183;SDS011;57554;51.546;6.776;2023-07-02T10:34:32;11.98;;;4.97;;
70183;SDS011;57554;51.546;6.776;2023-07-02T10:37:01;16.23;;;4.88;;
70183;SDS011;57554;51.546;6.776;2023-07-02T10:39:30;14.43;;;5.10;;
70183;SDS011;57554;51.546;6.776;2023-07-02T10:42:03;16.45;;;5.55;;
70183;SDS011;57554;51.546;6.776;2023-07-02T10:44:33;20.35;;;6.53;;
70183;SDS011;57554;51.546;6.776;2023-07-02T10:46:58;13.25;;;5.45;;
70183;SDS011;57554;51.546;6.776;2023-07-02T10:49:30;17.50;;;5.25;;
70183;SDS011;57554;51.546;6.776;2023-07-02T10:51:57;12.88;;;5.35;;
70183;SDS011;57554;51.546;6.776;2023-07-02T10:54:26;18.10;;;4.97;;
70183;SDS011;57554;51.546;6.776;2023-07-02T10:57:03;14.55;;;4.82;;
70183;SDS011;57554;51.546;6.776;2023-07-02T10:59:28;14.55;;;5.25;;
70183;SDS011;57554;51.546;6.776;2023-07-02T11:01:54;16.92;;;4.85;;
70183;SDS011;57554;51.546;6.776;2023-07-02T11:04:21;12.70;;;5.10;;
70183;SDS011;57554;51.546;6.776;2023-07-02T11:06:47;12.60;;;4.78;;
70183;SDS011;57554;51.546;6.776;2023-07-02T11:09:16;12.90;;;5.22;;
70183;SDS011;57554;51.546;6.776;2023-07-02T11:14:34;15.10;;;4.97;;
70183;SDS011;57554;51.546;6.776;2023-07-02T11:17:05;12.00;;;4.78;;
70183;SDS011;57554;51.546;6.776;2023-07-02T11:19:32;13.43;;;4.97;;
70183;SDS011;57554;51.546;6.776;2023-07-02T11:21:59;13.35;;;5.22;;
70183;SDS011;57554;51.546;6.776;2023-07-02T11:27:00;16.73;;;5.38;;
70183;SDS011;57554;51.546;6.776;2023-07-02T11:29:28;15.52;;;4.82;;
70183;SDS011;57554;51.546;6.776;2023-07-02T11:31:55;11.88;;;5.18;;
70183;SDS011;57554;51.546;6.776;2023-07-02T11:34:34;14.77;;;4.72;;
70183;SDS011;57554;51.546;6.776;2023-07-02T11:37:00;12.88;;;4.40;;
70183;SDS011;57554;51.546;6.776;2023-07-02T11:39:26;14.60;;;4.85;;
70183;SDS011;57554;51.546;6.776;2023-07-02T11:41:52;13.27;;;4.63;;
70183;SDS011;57554;51.546;6.776;2023-07-02T11:44:18;14.52;;;5.22;;
70183;SDS011;57554;51.546;6.776;2023-07-02T11:46:44;10.55;;;4.45;;
70183;SDS011;57554;51.546;6.776;2023-07-02T11:49:09;18.17;;;4.82;;
70183;SDS011;57554;51.546;6.776;2023-07-02T11:51:36;14.07;;;5.13;;
70183;SDS011;57554;51.546;6.776;2023-07-02T11:54:02;14.18;;;4.93;;
70183;SDS011;57554;51.546;6.776;2023-07-02T11:56:29;14.00;;;5.15;;
70183;SDS011;57554;51.546;6.776;2023-07-02T11:58:55;12.85;;;4.90;;
70183;SDS011;57554;51.546;6.776;2023-07-02T12:01:20;13.07;;;4.75;;
70183;SDS011;57554;51.546;6.776;2023-07-02T12:03:46;13.60;;;5.30;;
70183;SDS011;57554;51.546;6.776;2023-07-02T12:06:12;11.80;;;4.95;;
70183;SDS011;57554;51.546;6.776;2023-07-02T12:08:38;12.30;;;5.07;;
70183;SDS011;57554;51.546;6.776;2023-07-02T12:11:03;15.23;;;5.28;;
70183;SDS011;57554;51.546;6.776;2023-07-02T12:13:29;12.77;;;4.80;;
70183;SDS011;57554;51.546;6.776;2023-07-02T12:15:55;13.32;;;5.13;;
70183;SDS011;57554;51.546;6.776;2023-07-02T12:18:20;14.45;;;4.88;;
70183;SDS011;57554;51.546;6.776;2023-07-02T12:20:46;14.85;;;5.43;;
70183;SDS011;57554;51.546;6.776;2023-07-02T12:23:12;11.35;;;4.60;;
70183;SDS011;57554;51.546;6.776;2023-07-02T12:25:38;17.20;;;5.22;;
70183;SDS011;57554;51.546;6.776;2023-07-02T12:28:04;14.73;;;5.05;;
70183;SDS011;57554;51.546;6.776;2023-07-02T12:30:30;14.32;;;5.05;;
70183;SDS011;57554;51.546;6.776;2023-07-02T12:32:56;12.65;;;4.97;;
70183;SDS011;57554;51.546;6.776;2023-07-02T12:35:22;15.10;;;4.93;;
70183;SDS011;57554;51.546;6.776;2023-07-02T12:37:51;12.90;;;4.93;;
70183;SDS011;57554;51.546;6.776;2023-07-02T12:40:17;13.02;;;5.72;;
70183;SDS011;57554;51.546;6.776;2023-07-02T12:42:47;15.18;;;5.28;;
70183;SDS011;57554;51.546;6.776;2023-07-02T12:45:13;15.60;;;5.50;;
70183;SDS011;57554;51.546;6.776;2023-07-02T12:47:43;17.63;;;5.82;;
70183;SDS011;57554;51.546;6.776;2023-07-02T12:50:09;16.65;;;5.63;;
70183;SDS011;57554;51.546;6.776;2023-07-02T12:52:35;14.95;;;5.28;;
70183;SDS011;57554;51.546;6.776;2023-07-02T12:55:01;14.18;;;5.38;;
70183;SDS011;57554;51.546;6.776;2023-07-02T12:57:27;15.60;;;5.47;;
70183;SDS011;57554;51.546;6.776;2023-07-02T12:59:53;15.75;;;5.40;;
70183;SDS011;57554;51.546;6.776;2023-07-02T13:02:20;16.13;;;6.05;;
70183;SDS011;57554;51.546;6.776;2023-07-02T13:04:46;16.92;;;6.00;;
70183;SDS011;57554;51.546;6.776;2023-07-02T13:07:12;15.35;;;6.57;;
70183;SDS011;57554;51.546;6.776;2023-07-02T13:09:37;18.52;;;6.45;;
70183;SDS011;57554;51.546;6.776;2023-07-02T13:12:03;16.73;;;5.95;;
70183;SDS011;57554;51.546;6.776;2023-07-02T13:14:29;21.48;;;6.47;;
70183;SDS011;57554;51.546;6.776;2023-07-02T13:16:55;19.92;;;7.00;;
70183;SDS011;57554;51.546;6.776;2023-07-02T13:19:20;17.58;;;6.50;;
70183;SDS011;57554;51.546;6.776;2023-07-02T13:21:46;16.35;;;6.50;;
70183;SDS011;57554;51.546;6.776;2023-07-02T13:24:11;15.82;;;6.50;;
70183;SDS011;57554;51.546;6.776;2023-07-02T13:26:37;19.35;;;6.45;;
70183;SDS011;57554;51.546;6.776;2023-07-02T13:29:03;14.30;;;6.93;;
70183;SDS011;57554;51.546;6.776;2023-07-02T13:31:28;17.63;;;7.00;;
70183;SDS011;57554;51.546;6.776;2023-07-02T13:33:54;17.90;;;7.25;;
70183;SDS011;57554;51.546;6.776;2023-07-02T13:36:20;16.67;;;6.10;;
70183;SDS011;57554;51.546;6.776;2023-07-02T13:38:45;13.30;;;6.72;;
70183;SDS011;57554;51.546;6.776;2023-07-02T13:41:11;15.38;;;6.75;;
70183;SDS011;57554;51.546;6.776;2023-07-02T13:43:36;15.32;;;6.82;;
70183;SDS011;57554;51.546;6.776;2023-07-02T13:46:02;15.48;;;6.65;;
70183;SDS011;57554;51.546;6.776;2023-07-02T13:48:28;15.55;;;6.50;;
70183;SDS011;57554;51.546;6.776;2023-07-02T13:50:53;18.40;;;7.07;;
70183;SDS011;57554;51.546;6.776;2023-07-02T13:53:19;16.92;;;7.00;;
70183;SDS011;57554;51.546;6.776;2023-07-02T13:55:45;17.98;;;7.10;;
70183;SDS011;57554;51.546;6.776;2023-07-02T13:58:10;17.63;;;7.15;;
70183;SDS011;57554;51.546;6.776;2023-07-02T14:00:36;16.23;;;6.70;;
70183;SDS011;57554;51.546;6.776;2023-07-02T14:03:01;19.88;;;7.53;;
70183;SDS011;57554;51.546;6.776;2023-07-02T14:05:27;17.42;;;6.78;;
70183;SDS011;57554;51.546;6.776;2023-07-02T14:07:53;18.38;;;7.50;;
70183;SDS011;57554;51.546;6.776;2023-07-02T14:10:19;15.70;;;7.03;;
70183;SDS011;57554;51.546;6.776;2023-07-02T14:12:44;20.90;;;7.93;;
70183;SDS011;57554;51.546;6.776;2023-07-02T14:15:10;16.88;;;7.32;;
70183;SDS011;57554;51.546;6.776;2023-07-02T14:17:36;17.48;;;6.80;;
70183;SDS011;57554;51.546;6.776;2023-07-02T14:20:02;19.67;;;6.95;;
70183;SDS011;57554;51.546;6.776;2023-07-02T14:22:28;18.15;;;6.57;;
70183;SDS011;57554;51.546;6.776;2023-07-02T14:24:54;18.95;;;6.93;;
70183;SDS011;57554;51.546;6.776;2023-07-02T14:27:20;20.17;;;7.32;;
70183;SDS011;57554;51.546;6.776;2023-07-02T14:29:46;19.48;;;6.90;;
70183;SDS011;57554;51.546;6.776;2023-07-02T14:32:14;17.83;;;7.18;;
70183;SDS011;57554;51.546;6.776;2023-07-02T14:34:40;15.68;;;6.65;;
70183;SDS011;57554;51.546;6.776;2023-07-02T14:37:06;15.85;;;7.07;;
70183;SDS011;57554;51.546;6.776;2023-07-02T14:39:32;18.13;;;6.68;;